createdAt,value
2023-03-28T00:02:23.762Z,102141.03
2023-03-28T00:04:52.745Z,102129.19
2023-03-28T00:07:21.707Z,102131.41
2023-03-28T00:09:49.388Z,102125.19
2023-03-28T00:12:17.077Z,102119.81
2023-03-28T00:14:46.260Z,102121.47
2023-03-28T00:17:13.731Z,102118.16
2023-03-28T00:19:41.416Z,102121.72
2023-03-28T00:22:08.547Z,102126.41
2023-03-28T00:24:38.867Z,102126.56
2023-03-28T00:27:07.194Z,102122.50
2023-03-28T00:29:34.815Z,102133.28
2023-03-28T00:32:02.011Z,102134.50
2023-03-28T00:34:29.151Z,102137.41
2023-03-28T00:36:56.653Z,102135.13
2023-03-28T00:39:24.360Z,102151.28
2023-03-28T00:41:59.026Z,102159.44
2023-03-28T00:44:49.484Z,102150.41
2023-03-28T00:47:37.885Z,102151.59
2023-03-28T00:50:14.414Z,102157.81
2023-03-28T00:52:49.743Z,102165.81
2023-03-28T00:55:24.656Z,102169.41
2023-03-28T00:57:54.521Z,102165.00
2023-03-28T01:00:23.970Z,102163.06
2023-03-28T01:02:56.535Z,102164.63
2023-03-28T01:05:27.892Z,102171.13
2023-03-28T01:08:02.086Z,102163.72
2023-03-28T01:10:32.288Z,102163.22
2023-03-28T01:13:03.494Z,102165.56
2023-03-28T01:15:32.701Z,102164.59
2023-03-28T01:18:04.097Z,102172.25
2023-03-28T01:21:08.055Z,102179.53
2023-03-28T01:24:12.433Z,102182.28
2023-03-28T01:26:54.249Z,102191.13
2023-03-28T01:30:24.246Z,102191.63
2023-03-28T01:33:35.207Z,102189.72
2023-03-28T01:36:50.771Z,102192.47
2023-03-28T01:39:35.013Z,102197.59
2023-03-28T01:42:12.317Z,102195.91
2023-03-28T01:44:51.760Z,102210.00
2023-03-28T01:47:30.203Z,102194.50
2023-03-28T01:50:08.861Z,102194.75
2023-03-28T01:52:44.844Z,102198.59
2023-03-28T01:55:21.126Z,102197.91
2023-03-28T01:58:02.025Z,102198.97
2023-03-28T02:00:34.746Z,102191.94
2023-03-28T02:03:11.499Z,102192.75
2023-03-28T02:05:42.855Z,102196.91
2023-03-28T02:08:14.128Z,102201.38
2023-03-28T02:10:43.577Z,102209.94
2023-03-28T02:13:20.256Z,102213.50
2023-03-28T02:15:52.381Z,102216.28
2023-03-28T02:18:29.606Z,102204.38
2023-03-28T02:21:01.980Z,102198.84
2023-03-28T02:23:38.348Z,102198.84
2023-03-28T02:26:06.363Z,102198.84
2023-03-28T02:28:36.997Z,102200.78
2023-03-28T02:31:07.214Z,102204.38
2023-03-28T02:33:39.168Z,102200.78
2023-03-28T02:36:29.939Z,102204.09
2023-03-28T02:39:32.306Z,102205.19
2023-03-28T02:42:30.910Z,102201.00
2023-03-28T02:45:42.731Z,102196.03
2023-03-28T02:48:25.194Z,102193.53
2023-03-28T02:51:08.728Z,102198.91
2023-03-28T02:53:45.482Z,102195.69
2023-03-28T02:56:23.494Z,102203.00
2023-03-28T02:58:56.963Z,102209.31
2023-03-28T03:01:29.135Z,102209.47
2023-03-28T03:03:58.308Z,102208.25
2023-03-28T03:06:25.473Z,102211.31
2023-03-28T03:08:52.341Z,102217.03
2023-03-28T03:11:21.326Z,102209.88
2023-03-28T03:13:48.176Z,102211.41
2023-03-28T03:16:15.251Z,102205.78
2023-03-28T03:18:42.174Z,102208.16
2023-03-28T03:21:09.205Z,102202.38
2023-03-28T03:23:36.625Z,102206.16
2023-03-28T03:26:03.970Z,102202.31
2023-03-28T03:28:32.198Z,102207.31
2023-03-28T03:30:59.089Z,102205.78
2023-03-28T03:33:26.242Z,102200.66
2023-03-28T03:35:53.409Z,102210.56
2023-03-28T03:38:20.517Z,102204.75
2023-03-28T03:40:47.510Z,102200.69
2023-03-28T03:43:14.422Z,102205.53
2023-03-28T03:45:45.803Z,102211.03
2023-03-28T03:48:12.795Z,102212.25
2023-03-28T03:50:40.266Z,102214.28
2023-03-28T03:53:07.125Z,102216.28
2023-03-28T03:55:33.987Z,102223.47
2023-03-28T03:58:01.410Z,102222.75
2023-03-28T04:00:28.594Z,102223.84
2023-03-28T04:02:56.881Z,102220.53
2023-03-28T04:05:24.133Z,102225.19
2023-03-28T04:07:51.124Z,102234.16
2023-03-28T04:10:18.176Z,102228.06
2023-03-28T04:12:45.052Z,102235.22
2023-03-28T04:15:11.977Z,102231.16
2023-03-28T04:17:41.177Z,102238.31
2023-03-28T04:20:14.102Z,102231.66
2023-03-28T04:22:46.372Z,102236.22
2023-03-28T04:25:13.902Z,102235.50
2023-03-28T04:27:46.984Z,102230.50
2023-03-28T04:30:17.582Z,102239.53
2023-03-28T04:32:44.644Z,102235.38
2023-03-28T04:35:12.937Z,102241.69
2023-03-28T04:37:40.266Z,102250.50
2023-03-28T04:40:12.083Z,102255.16
2023-03-28T04:42:39.368Z,102252.66
2023-03-28T04:45:08.527Z,102251.00
2023-03-28T04:47:39.888Z,102261.50
2023-03-28T04:50:10.060Z,102255.41
2023-03-28T04:52:38.727Z,102251.94
2023-03-28T04:55:07.738Z,102263.13
2023-03-28T04:57:36.992Z,102270.06
2023-03-28T05:00:13.037Z,102276.97
2023-03-28T05:02:40.012Z,102275.19
2023-03-28T05:05:08.007Z,102285.31
2023-03-28T05:07:35.546Z,102277.91
2023-03-28T05:10:04.728Z,102279.34
2023-03-28T05:12:31.596Z,102291.88
2023-03-28T05:14:58.461Z,102291.25
2023-03-28T05:17:25.716Z,102305.31
2023-03-28T05:19:52.701Z,102311.75
2023-03-28T05:22:19.548Z,102322.34
2023-03-28T05:24:46.404Z,102322.44
2023-03-28T05:27:14.790Z,102333.03
2023-03-28T05:29:41.647Z,102334.06
2023-03-28T05:32:13.115Z,102334.28
2023-03-28T05:34:40.195Z,102328.78
2023-03-28T05:37:07.070Z,102333.75
2023-03-28T05:39:33.976Z,102339.84
2023-03-28T05:42:00.862Z,102330.19
2023-03-28T05:44:29.188Z,102349.53
2023-03-28T05:46:56.067Z,102343.69
2023-03-28T05:49:23.037Z,102344.78
2023-03-28T05:51:49.991Z,102347.66
2023-03-28T05:54:17.018Z,102348.88
2023-03-28T05:56:44.211Z,102354.00
2023-03-28T05:59:11.760Z,102354.44
2023-03-28T06:01:42.007Z,102353.59
2023-03-28T06:04:10.659Z,102349.75
2023-03-28T06:06:37.685Z,102352.13
2023-03-28T06:09:04.605Z,102346.59
2023-03-28T06:11:31.905Z,102342.78
2023-03-28T06:13:58.765Z,102353.84
2023-03-28T06:16:31.175Z,102361.63
2023-03-28T06:19:14.478Z,102363.53
2023-03-28T06:21:44.526Z,102370.91
2023-03-28T06:24:11.604Z,102370.69
2023-03-28T06:26:38.990Z,102369.44
2023-03-28T06:29:06.439Z,102371.09
2023-03-28T06:31:34.110Z,102370.59
2023-03-28T06:34:02.679Z,102371.75
2023-03-28T06:36:29.682Z,102371.97
2023-03-28T06:38:58.277Z,102377.41
2023-03-28T06:41:25.340Z,102376.63
2023-03-28T06:43:53.025Z,102376.13
2023-03-28T06:46:20.460Z,102375.88
2023-03-28T06:48:47.541Z,102386.09
2023-03-28T06:51:15.845Z,102385.00
2023-03-28T06:53:42.680Z,102390.84
2023-03-28T06:56:11.278Z,102382.00
2023-03-28T06:58:39.018Z,102380.06
2023-03-28T07:01:06.757Z,102395.59
2023-03-28T07:03:34.075Z,102388.69
2023-03-28T07:06:05.859Z,102389.19
2023-03-28T07:08:34.466Z,102398.31
2023-03-28T07:11:01.962Z,102392.88
2023-03-28T07:13:29.426Z,102396.34
2023-03-28T07:16:01.661Z,102388.91
2023-03-28T07:18:28.940Z,102393.16
2023-03-28T07:21:03.881Z,102395.97
2023-03-28T07:23:31.334Z,102401.16
2023-03-28T07:25:59.565Z,102398.75
2023-03-28T07:28:26.540Z,102411.66
2023-03-28T07:30:54.219Z,102416.34
2023-03-28T07:33:30.273Z,102419.03
2023-03-28T07:36:06.578Z,102426.91
2023-03-28T07:38:34.551Z,102416.66
2023-03-28T07:41:03.681Z,102420.72
2023-03-28T07:43:30.932Z,102425.03
2023-03-28T07:46:02.112Z,102420.56
2023-03-28T07:48:29.747Z,102427.06
2023-03-28T07:50:57.080Z,102443.31
2023-03-28T07:53:24.179Z,102429.34
2023-03-28T07:55:54.861Z,102423.56
2023-03-28T07:58:24.489Z,102426.03
2023-03-28T08:00:51.616Z,102437.06
2023-03-28T08:03:21.839Z,102425.97
2023-03-28T08:05:52.166Z,102421.78
2023-03-28T08:08:20.525Z,102428.03
2023-03-28T08:10:51.163Z,102428.16
2023-03-28T08:13:20.696Z,102409.28
2023-03-28T08:15:53.008Z,102413.19
2023-03-28T08:18:23.911Z,102420.00
2023-03-28T08:20:58.321Z,102418.13
2023-03-28T08:23:26.636Z,102419.34
2023-03-28T08:26:04.606Z,102420.69
2023-03-28T08:28:33.343Z,102419.69
2023-03-28T08:31:02.685Z,102422.66
2023-03-28T08:33:32.663Z,102430.59
2023-03-28T08:36:02.539Z,102426.34
2023-03-28T08:38:30.414Z,102432.75
2023-03-28T08:41:14.653Z,102433.13
2023-03-28T08:44:25.315Z,102427.53
2023-03-28T08:46:58.860Z,102429.38
2023-03-28T08:49:26.175Z,102422.56
2023-03-28T08:51:59.161Z,102429.16
2023-03-28T08:54:33.181Z,102428.38
2023-03-28T08:57:04.851Z,102436.38
2023-03-28T08:59:45.655Z,102432.00
2023-03-28T09:02:21.288Z,102429.69
2023-03-28T09:04:50.457Z,102427.63
2023-03-28T09:07:32.541Z,102426.13
2023-03-28T09:10:14.259Z,102429.72
2023-03-28T09:12:57.484Z,102431.16
2023-03-28T09:15:47.550Z,102433.63
2023-03-28T09:18:48.263Z,102426.91
2023-03-28T09:21:27.739Z,102435.50
2023-03-28T09:24:13.384Z,102430.25
2023-03-28T09:26:47.558Z,102434.25
2023-03-28T09:29:19.148Z,102429.28
2023-03-28T09:31:48.946Z,102432.53
2023-03-28T09:34:22.935Z,102422.69
2023-03-28T09:36:55.565Z,102428.97
2023-03-28T09:39:35.603Z,102433.16
2023-03-28T09:42:08.032Z,102432.94
2023-03-28T09:44:54.193Z,102419.53
2023-03-28T09:47:22.289Z,102425.63
2023-03-28T09:49:56.392Z,102424.00
2023-03-28T09:52:30.761Z,102427.03
2023-03-28T09:55:00.365Z,102432.44
2023-03-28T09:57:27.518Z,102425.78
2023-03-28T09:59:58.567Z,102432.91
2023-03-28T10:02:29.195Z,102432.81
2023-03-28T10:04:58.181Z,102433.28
2023-03-28T10:07:32.647Z,102430.66
2023-03-28T10:10:17.695Z,102434.44
2023-03-28T10:12:49.040Z,102429.47
2023-03-28T10:15:41.427Z,102430.13
2023-03-28T10:18:16.646Z,102434.66
2023-03-28T10:20:45.466Z,102423.81
2023-03-28T10:23:13.792Z,102426.69
2023-03-28T10:25:44.345Z,102425.88
2023-03-28T10:28:17.727Z,102422.69
2023-03-28T10:30:55.299Z,102421.47
2023-03-28T10:33:31.775Z,102418.63
2023-03-28T10:36:03.187Z,102410.78
2023-03-28T10:38:38.396Z,102408.63
2023-03-28T10:41:12.083Z,102410.91
2023-03-28T10:43:41.671Z,102418.44
2023-03-28T10:46:17.464Z,102423.16
2023-03-28T10:48:51.419Z,102420.16
2023-03-28T10:51:22.299Z,102416.47
2023-03-28T10:54:13.394Z,102413.91
2023-03-28T10:56:50.292Z,102407.63
2023-03-28T10:59:47.344Z,102398.53
2023-03-28T11:02:45.132Z,102398.31
2023-03-28T11:05:37.803Z,102403.84
2023-03-28T11:08:35.849Z,102395.94
2023-03-28T11:11:21.986Z,102395.78
2023-03-28T11:13:59.620Z,102398.16
2023-03-28T11:16:45.936Z,102387.94
2023-03-28T11:19:31.434Z,102398.69
2023-03-28T11:22:10.575Z,102401.41
2023-03-28T11:24:53.488Z,102400.69
2023-03-28T11:27:28.540Z,102399.41
2023-03-28T11:30:02.674Z,102404.13
2023-03-28T11:32:40.592Z,102399.63
2023-03-28T11:35:22.077Z,102401.25
2023-03-28T11:38:02.099Z,102393.09
2023-03-28T11:40:49.356Z,102382.56
2023-03-28T11:43:27.064Z,102392.34
2023-03-28T11:46:03.470Z,102386.97
2023-03-28T11:48:42.197Z,102387.50
2023-03-28T11:51:17.005Z,102394.09
2023-03-28T11:53:53.276Z,102390.81
2023-03-28T11:56:40.397Z,102380.50
2023-03-28T11:59:18.242Z,102380.59
2023-03-28T12:01:50.391Z,102380.00
2023-03-28T12:04:24.047Z,102378.41
2023-03-28T12:07:05.564Z,102370.47
2023-03-28T12:09:45.328Z,102381.06
2023-03-28T12:12:21.371Z,102376.03
2023-03-28T12:14:57.115Z,102371.88
2023-03-28T12:17:30.973Z,102377.75
2023-03-28T12:19:58.985Z,102367.59
2023-03-28T12:22:34.481Z,102362.78
2023-03-28T12:25:11.968Z,102363.94
2023-03-28T12:27:55.685Z,102368.84
2023-03-28T12:30:32.833Z,102355.22
2023-03-28T12:33:15.876Z,102351.63
2023-03-28T12:35:51.289Z,102353.34
2023-03-28T12:38:32.293Z,102346.34
2023-03-28T12:41:03.798Z,102351.44
2023-03-28T12:43:44.141Z,102346.13
2023-03-28T12:46:16.521Z,102337.13
2023-03-28T12:48:52.311Z,102340.81
2023-03-28T12:51:25.602Z,102329.09
2023-03-28T12:54:08.920Z,102333.78
2023-03-28T12:56:36.155Z,102324.97
2023-03-28T12:59:51.540Z,102320.41
2023-03-28T13:02:29.184Z,102329.06
2023-03-28T13:05:04.844Z,102323.06
2023-03-28T13:07:56.168Z,102330.69
2023-03-28T13:10:35.650Z,102332.63
2023-03-28T13:13:22.933Z,102324.22
2023-03-28T13:16:02.856Z,102312.88
2023-03-28T13:18:33.690Z,102317.16
2023-03-28T13:21:05.284Z,102317.00
2023-03-28T13:23:45.312Z,102318.13
2023-03-28T13:26:13.417Z,102313.56
2023-03-28T13:28:46.515Z,102302.31
2023-03-28T13:31:24.385Z,102303.69
2023-03-28T13:33:59.787Z,102303.69
2023-03-28T13:36:32.290Z,102293.28
2023-03-28T13:39:18.691Z,102291.94
2023-03-28T13:42:00.816Z,102284.69
2023-03-28T13:44:43.330Z,102280.56
2023-03-28T13:47:32.451Z,102273.03
2023-03-28T13:50:09.906Z,102275.59
2023-03-28T13:52:38.665Z,102274.28
2023-03-28T13:55:20.946Z,102276.59
2023-03-28T13:57:48.883Z,102280.44
2023-03-28T14:00:22.556Z,102269.88
2023-03-28T14:02:53.567Z,102271.72
2023-03-28T14:05:24.644Z,102264.44
2023-03-28T14:07:55.243Z,102261.91
2023-03-28T14:10:31.466Z,102263.03
2023-03-28T14:13:04.198Z,102251.50
2023-03-28T14:15:36.436Z,102261.22
2023-03-28T14:18:07.680Z,102257.53
2023-03-28T14:20:34.979Z,102250.63
2023-03-28T14:23:02.302Z,102254.78
2023-03-28T14:25:30.740Z,102251.16
2023-03-28T14:28:08.513Z,102240.88
2023-03-28T14:30:40.871Z,102239.38
2023-03-28T14:33:21.043Z,102237.78
2023-03-28T14:35:58.336Z,102230.22
2023-03-28T14:38:32.072Z,102233.22
2023-03-28T14:41:12.688Z,102233.88
2023-03-28T14:43:40.573Z,102228.09
2023-03-28T14:46:11.203Z,102226.75
2023-03-28T14:48:42.260Z,102223.00
2023-03-28T14:51:13.613Z,102216.69
2023-03-28T14:53:46.434Z,102212.59
2023-03-28T14:56:22.798Z,102207.56
2023-03-28T14:58:52.750Z,102204.16
2023-03-28T15:01:23.438Z,102194.72
2023-03-28T15:03:58.657Z,102196.94
2023-03-28T15:06:29.096Z,102187.00
2023-03-28T15:09:00.442Z,102181.19
2023-03-28T15:11:32.388Z,102169.66
2023-03-28T15:14:05.395Z,102168.47
2023-03-28T15:16:41.452Z,102170.66
2023-03-28T15:19:35.720Z,102163.88
2023-03-28T15:22:12.349Z,102167.94
2023-03-28T15:24:41.220Z,102158.59
2023-03-28T15:27:23.488Z,102157.38
2023-03-28T15:29:51.740Z,102157.38
2023-03-28T15:32:20.856Z,102150.78
2023-03-28T15:35:00.493Z,102147.22
2023-03-28T15:37:28.048Z,102145.13
2023-03-28T15:40:22.843Z,102129.19
2023-03-28T15:42:51.161Z,102129.84
2023-03-28T15:45:38.811Z,102126.13
2023-03-28T15:48:15.038Z,102117.22
2023-03-28T15:50:51.009Z,102124.41
2023-03-28T15:53:20.356Z,102126.00
2023-03-28T15:55:49.972Z,102116.63
2023-03-28T15:58:20.674Z,102115.91
2023-03-28T16:00:49.685Z,102121.22
2023-03-28T16:03:32.636Z,102119.63
2023-03-28T16:06:31.691Z,102124.63
2023-03-28T16:09:18.035Z,102115.59
2023-03-28T16:11:47.169Z,102111.50
2023-03-28T16:14:18.264Z,102105.78
2023-03-28T16:16:46.337Z,102113.78
2023-03-28T16:19:25.844Z,102102.56
2023-03-28T16:21:54.592Z,102111.19
2023-03-28T16:24:21.640Z,102112.03
2023-03-28T16:26:48.980Z,102110.03
2023-03-28T16:29:16.001Z,102113.72
2023-03-28T16:31:43.584Z,102106.16
2023-03-28T16:34:10.950Z,102112.16
2023-03-28T16:36:38.601Z,102108.00
2023-03-28T16:39:08.265Z,102098.28
2023-03-28T16:41:36.020Z,102094.16
2023-03-28T16:44:03.892Z,102092.94
2023-03-28T16:46:31.382Z,102093.59
2023-03-28T16:48:58.534Z,102092.75
2023-03-28T16:51:26.042Z,102084.59
2023-03-28T16:53:53.250Z,102084.25
2023-03-28T16:56:25.545Z,102088.56
2023-03-28T16:58:52.610Z,102087.22
2023-03-28T17:01:20.113Z,102078.59
2023-03-28T17:03:47.758Z,102076.97
2023-03-28T17:06:16.648Z,102078.97
2023-03-28T17:08:44.540Z,102064.41
2023-03-28T17:11:12.550Z,102063.06
2023-03-28T17:13:42.785Z,102057.41
2023-03-28T17:16:11.195Z,102057.06
2023-03-28T17:18:38.313Z,102050.09
2023-03-28T17:21:09.445Z,102052.06
2023-03-28T17:23:39.175Z,102057.72
2023-03-28T17:26:09.773Z,102050.25
2023-03-28T17:28:39.199Z,102043.97
2023-03-28T17:31:10.640Z,102053.84
2023-03-28T17:33:38.078Z,102047.75
2023-03-28T17:36:20.970Z,102044.94
2023-03-28T17:38:49.706Z,102032.91
2023-03-28T17:41:17.356Z,102025.94
2023-03-28T17:43:44.935Z,102030.22
2023-03-28T17:46:13.311Z,102026.59
2023-03-28T17:48:41.692Z,102029.53
2023-03-28T17:51:10.393Z,102032.19
2023-03-28T17:53:39.612Z,102023.94
2023-03-28T17:56:07.092Z,102028.88
2023-03-28T17:58:34.371Z,102025.59
2023-03-28T18:01:01.511Z,102028.88
2023-03-28T18:03:30.173Z,102016.94
2023-03-28T18:06:00.555Z,102009.50
2023-03-28T18:08:28.917Z,102008.69
2023-03-28T18:11:00.774Z,102013.63
2023-03-28T18:13:28.138Z,102020.59
2023-03-28T18:15:55.469Z,102013.97
2023-03-28T18:18:22.572Z,102010.34
2023-03-28T18:20:51.166Z,102010.34
2023-03-28T18:23:18.350Z,102017.03
2023-03-28T18:25:45.607Z,102015.56
2023-03-28T18:28:12.716Z,102010.72
2023-03-28T18:30:41.927Z,102011.56
2023-03-28T18:33:11.544Z,102010.59
2023-03-28T18:35:38.752Z,102007.94
2023-03-28T18:38:07.490Z,102005.97
2023-03-28T18:40:34.476Z,102002.34
2023-03-28T18:43:01.517Z,102001.03
2023-03-28T18:45:28.726Z,102011.63
2023-03-28T18:47:55.770Z,102004.00
2023-03-28T18:50:23.233Z,101998.34
2023-03-28T18:52:50.158Z,101996.34
2023-03-28T18:55:19.133Z,101997.81
2023-03-28T18:57:46.347Z,101989.88
2023-03-28T19:00:17.553Z,101985.72
2023-03-28T19:02:45.362Z,101976.44
2023-03-28T19:05:13.255Z,101978.56
2023-03-28T19:07:40.241Z,101976.06
2023-03-28T19:10:09.888Z,101971.78
2023-03-28T19:12:39.430Z,101974.75
2023-03-28T19:15:10.569Z,101966.47
2023-03-28T19:17:39.911Z,101969.06
2023-03-28T19:20:13.194Z,101968.72
2023-03-28T19:22:40.433Z,101965.41
2023-03-28T19:25:09.734Z,101961.09
2023-03-28T19:27:38.601Z,101964.19
2023-03-28T19:30:07.993Z,101962.41
2023-03-28T19:32:35.163Z,101954.78
2023-03-28T19:35:02.237Z,101958.38
2023-03-28T19:37:29.235Z,101952.44
2023-03-28T19:39:58.983Z,101945.81
2023-03-28T19:42:26.174Z,101946.50
2023-03-28T19:44:54.589Z,101950.63
2023-03-28T19:47:21.697Z,101945.06
2023-03-28T19:49:55.863Z,101943.25
2023-03-28T19:52:31.053Z,101951.97
2023-03-28T19:54:58.378Z,101952.50
2023-03-28T19:57:25.454Z,101951.66
2023-03-28T19:59:53.941Z,101949.19
2023-03-28T20:02:20.968Z,101950.84
2023-03-28T20:04:48.015Z,101955.75
2023-03-28T20:07:15.417Z,101939.09
2023-03-28T20:09:48.761Z,101949.34
2023-03-28T20:12:16.586Z,101952.63
2023-03-28T20:14:44.618Z,101951.88
2023-03-28T20:17:13.290Z,101941.66
2023-03-28T20:19:40.353Z,101949.59
2023-03-28T20:22:07.888Z,101943.84
2023-03-28T20:24:34.983Z,101941.41
2023-03-28T20:27:02.228Z,101942.88
2023-03-28T20:29:29.840Z,101934.81
2023-03-28T20:31:56.868Z,101940.72
2023-03-28T20:34:25.489Z,101940.47
2023-03-28T20:36:54.032Z,101931.31
2023-03-28T20:39:22.510Z,101924.41
2023-03-28T20:41:49.538Z,101913.88
2023-03-28T20:44:19.741Z,101916.72
2023-03-28T20:46:48.791Z,101916.56
2023-03-28T20:49:17.852Z,101910.28
2023-03-28T20:51:46.427Z,101903.72
2023-03-28T20:54:13.884Z,101895.16
2023-03-28T20:56:41.147Z,101888.09
2023-03-28T20:59:08.237Z,101882.84
2023-03-28T21:01:39.390Z,101886.34
2023-03-28T21:04:07.092Z,101885.38
2023-03-28T21:06:39.585Z,101885.06
2023-03-28T21:09:10.880Z,101877.78
2023-03-28T21:11:39.727Z,101868.38
2023-03-28T21:14:10.411Z,101861.47
2023-03-28T21:16:37.638Z,101864.97
2023-03-28T21:19:05.374Z,101853.72
2023-03-28T21:21:33.914Z,101856.72
2023-03-28T21:24:02.324Z,101858.03
2023-03-28T21:26:32.096Z,101859.69
2023-03-28T21:28:59.881Z,101861.00
2023-03-28T21:31:29.318Z,101860.88
2023-03-28T21:33:58.537Z,101860.03
2023-03-28T21:36:27.745Z,101869.13
2023-03-28T21:38:55.933Z,101865.63
2023-03-28T21:41:23.776Z,101872.50
2023-03-28T21:43:53.613Z,101871.50
2023-03-28T21:46:21.036Z,101874.63
2023-03-28T21:48:48.619Z,101867.50
2023-03-28T21:51:16.551Z,101866.50
2023-03-28T21:53:43.541Z,101863.63
2023-03-28T21:56:12.652Z,101868.78
2023-03-28T21:58:39.954Z,101865.09
2023-03-28T22:01:11.297Z,101861.13
2023-03-28T22:03:38.528Z,101867.91
2023-03-28T22:06:06.687Z,101852.88
2023-03-28T22:08:33.751Z,101850.91
2023-03-28T22:11:03.235Z,101845.47
2023-03-28T22:13:30.558Z,101831.25
2023-03-28T22:15:59.650Z,101835.69
2023-03-28T22:18:30.449Z,101830.63
2023-03-28T22:20:57.608Z,101822.69
2023-03-28T22:23:24.616Z,101811.34
2023-03-28T22:25:52.814Z,101815.81
2023-03-28T22:28:23.956Z,101800.13
2023-03-28T22:30:55.033Z,101793.84
2023-03-28T22:33:23.357Z,101794.50
2023-03-28T22:35:52.411Z,101787.91
2023-03-28T22:38:19.517Z,101788.91
2023-03-28T22:40:47.338Z,101785.94
2023-03-28T22:43:14.836Z,101782.16
2023-03-28T22:45:42.820Z,101768.78
2023-03-28T22:48:15.976Z,101775.38
2023-03-28T22:50:45.472Z,101769.78
2023-03-28T22:53:15.057Z,101774.44
2023-03-28T22:55:43.996Z,101774.94
2023-03-28T22:58:12.419Z,101768.47
2023-03-28T23:00:39.430Z,101773.13
2023-03-28T23:03:08.000Z,101769.13
2023-03-28T23:05:35.591Z,101770.78
2023-03-28T23:08:02.592Z,101761.84
2023-03-28T23:10:32.016Z,101772.78
2023-03-28T23:13:00.122Z,101768.00
2023-03-28T23:15:27.693Z,101771.28
2023-03-28T23:17:55.815Z,101767.44
2023-03-28T23:20:22.766Z,101761.84
2023-03-28T23:22:49.941Z,101755.88
2023-03-28T23:25:19.063Z,101753.41
2023-03-28T23:27:47.569Z,101745.50
2023-03-28T23:30:16.578Z,101743.69
2023-03-28T23:32:43.967Z,101742.53
2023-03-28T23:35:11.808Z,101734.75
2023-03-28T23:37:39.506Z,101736.06
2023-03-28T23:40:13.864Z,101732.13
2023-03-28T23:42:43.524Z,101740.03
2023-03-28T23:45:14.608Z,101739.34
2023-03-28T23:47:42.714Z,101738.34
2023-03-28T23:50:11.047Z,101733.41
2023-03-28T23:52:37.990Z,101729.28
2023-03-28T23:55:07.810Z,101722.50
2023-03-28T23:57:35.026Z,101719.03
